createdAt,value
2018-04-12T00:01:29.566Z,99.96
2018-04-12T00:03:57.846Z,100.00
2018-04-12T00:06:26.141Z,100.00
2018-04-12T00:08:55.187Z,100.00
2018-04-12T00:11:23.488Z,100.00
2018-04-12T00:13:51.759Z,100.00
2018-04-12T00:16:20.059Z,100.00
2018-04-12T00:18:49.162Z,100.00
2018-04-12T00:21:18.217Z,100.00
2018-04-12T00:23:46.498Z,100.00
2018-04-12T00:26:14.793Z,100.00
2018-04-12T00:28:43.074Z,100.00
2018-04-12T00:31:12.136Z,99.80
2018-04-12T00:33:40.416Z,100.00
2018-04-12T00:36:08.703Z,100.00
2018-04-12T00:38:36.991Z,100.00
2018-04-12T00:41:05.286Z,100.00
2018-04-12T00:43:34.328Z,99.74
2018-04-12T00:46:02.607Z,99.90
2018-04-12T00:48:30.901Z,99.84
2018-04-12T00:50:59.182Z,99.89
2018-04-12T00:53:45.207Z,99.35
2018-04-12T00:56:13.493Z,99.76
2018-04-12T00:58:41.787Z,99.95
2018-04-12T01:01:10.076Z,100.00
2018-04-12T01:03:38.359Z,99.73
2018-04-12T01:06:06.634Z,99.56
2018-04-12T01:08:34.915Z,99.66
2018-04-12T01:11:03.189Z,99.71
2018-04-12T01:13:32.058Z,99.73
2018-04-12T01:16:00.342Z,100.00
2018-04-12T01:18:28.624Z,99.32
2018-04-12T01:20:58.233Z,99.57
2018-04-12T01:23:26.524Z,99.41
2018-04-12T01:25:54.835Z,99.31
2018-04-12T01:28:23.887Z,99.32
2018-04-12T01:30:52.162Z,98.66
2018-04-12T01:33:20.459Z,98.33
2018-04-12T01:35:48.751Z,99.29
2018-04-12T01:38:17.808Z,98.59
2018-04-12T01:40:46.083Z,98.97
2018-04-12T01:43:14.355Z,99.92
2018-04-12T01:45:42.663Z,100.00
2018-04-12T01:48:10.951Z,99.53
2018-04-12T01:50:39.999Z,99.15
2018-04-12T01:53:08.268Z,99.47
2018-04-12T01:55:36.553Z,99.86
2018-04-12T01:58:04.838Z,100.00
2018-04-12T02:00:33.151Z,100.00
2018-04-12T02:03:02.191Z,99.80
2018-04-12T02:05:30.480Z,100.00
2018-04-12T02:07:59.536Z,100.00
2018-04-12T02:10:27.822Z,99.88
2018-04-12T02:12:56.094Z,100.00
2018-04-12T02:15:24.386Z,100.00
2018-04-12T02:17:52.655Z,99.69
2018-04-12T02:20:20.946Z,100.00
2018-04-12T02:22:49.229Z,99.89
2018-04-12T02:25:17.519Z,99.46
2018-04-12T02:27:45.795Z,99.72
2018-04-12T02:30:14.088Z,99.68
2018-04-12T02:32:42.365Z,99.66
2018-04-12T02:35:10.658Z,100.00
2018-04-12T02:37:38.984Z,100.00
2018-04-12T02:40:07.280Z,100.00
2018-04-12T02:42:35.576Z,100.00
2018-04-12T02:45:04.008Z,100.00
2018-04-12T02:47:32.288Z,100.00
2018-04-12T02:50:00.580Z,100.00
2018-04-12T02:52:28.891Z,100.00
2018-04-12T02:54:57.200Z,100.00
2018-04-12T02:57:25.504Z,100.00
2018-04-12T02:59:53.783Z,100.00
2018-04-12T03:02:22.098Z,100.00
2018-04-12T03:04:50.368Z,99.44
2018-04-12T03:07:18.663Z,99.95
2018-04-12T03:09:47.707Z,99.80
2018-04-12T03:12:15.995Z,99.43
2018-04-12T03:14:44.280Z,99.21
2018-04-12T03:17:12.572Z,99.57
2018-04-12T03:19:40.835Z,99.26
2018-04-12T03:22:09.147Z,99.05
2018-04-12T03:24:38.200Z,98.87
2018-04-12T03:27:06.527Z,98.88
2018-04-12T03:29:34.878Z,99.44
2018-04-12T03:32:03.175Z,98.74
2018-04-12T03:34:32.214Z,98.65
2018-04-12T03:37:00.507Z,97.67
2018-04-12T03:39:28.774Z,98.35
2018-04-12T03:41:57.070Z,97.95
2018-04-12T03:44:25.338Z,97.54
2018-04-12T03:46:53.627Z,97.35
2018-04-12T03:49:21.943Z,97.06
2018-04-12T03:51:50.180Z,97.21
2018-04-12T03:54:18.480Z,96.96
2018-04-12T03:56:47.518Z,96.70
2018-04-12T03:59:15.802Z,96.94
2018-04-12T04:01:44.106Z,97.04
2018-04-12T04:04:12.437Z,97.20
2018-04-12T04:06:40.703Z,98.03
2018-04-12T04:09:08.990Z,97.69
2018-04-12T04:11:37.287Z,97.93
2018-04-12T04:14:05.581Z,98.79
2018-04-12T04:16:51.630Z,97.74
2018-04-12T04:19:37.490Z,98.60
2018-04-12T04:22:06.534Z,98.03
2018-04-12T04:24:34.828Z,97.86
2018-04-12T04:27:03.148Z,97.48
2018-04-12T04:29:32.295Z,98.38
2018-04-12T04:32:00.579Z,97.99
2018-04-12T04:34:28.869Z,98.04
2018-04-12T04:36:57.135Z,97.92
2018-04-12T04:39:25.447Z,98.36
2018-04-12T04:41:54.479Z,98.61
2018-04-12T04:44:22.764Z,98.30
2018-04-12T04:46:51.035Z,97.98
2018-04-12T04:49:19.347Z,97.64
2018-04-12T04:51:47.620Z,97.26
2018-04-12T04:54:15.909Z,97.43
2018-04-12T04:56:44.946Z,96.94
2018-04-12T04:59:13.209Z,97.16
2018-04-12T05:01:42.266Z,97.38
2018-04-12T05:04:11.309Z,96.57
2018-04-12T05:06:39.591Z,96.61
2018-04-12T05:09:07.862Z,96.78
2018-04-12T05:11:36.147Z,95.76
2018-04-12T05:14:04.406Z,95.37
2018-04-12T05:16:32.795Z,94.98
2018-04-12T05:19:01.067Z,94.87
2018-04-12T05:21:29.355Z,95.53
2018-04-12T05:23:57.621Z,96.22
2018-04-12T05:26:25.904Z,97.13
2018-04-12T05:28:54.177Z,96.42
2018-04-12T05:31:22.455Z,96.65
2018-04-12T05:33:50.744Z,96.39
2018-04-12T05:36:19.035Z,96.05
2018-04-12T05:38:47.307Z,95.91
2018-04-12T05:41:15.607Z,97.39
2018-04-12T05:43:43.880Z,97.44
2018-04-12T05:46:12.171Z,97.63
2018-04-12T05:48:41.223Z,97.55
2018-04-12T05:51:09.525Z,97.79
2018-04-12T05:53:38.565Z,97.38
2018-04-12T05:56:08.095Z,97.36
2018-04-12T05:58:36.420Z,96.98
2018-04-12T06:01:05.484Z,95.62
2018-04-12T06:03:33.759Z,96.80
2018-04-12T06:06:02.023Z,96.25
2018-04-12T06:08:31.082Z,96.30
2018-04-12T06:10:59.391Z,95.02
2018-04-12T06:13:27.690Z,94.24
2018-04-12T06:15:55.961Z,94.74
2018-04-12T06:18:24.251Z,94.12
2018-04-12T06:20:52.517Z,93.16
2018-04-12T06:23:20.808Z,93.31
2018-04-12T06:25:49.141Z,93.65
2018-04-12T06:28:17.434Z,92.26
2018-04-12T06:30:45.694Z,92.10
2018-04-12T06:33:14.025Z,92.18
2018-04-12T06:35:43.076Z,91.79
2018-04-12T06:38:11.362Z,91.72
2018-04-12T06:40:39.631Z,90.59
2018-04-12T06:43:07.934Z,91.21
2018-04-12T06:45:36.219Z,90.64
2018-04-12T06:48:05.274Z,91.04
2018-04-12T06:50:33.561Z,90.43
2018-04-12T06:53:02.642Z,90.76
2018-04-12T06:55:30.915Z,90.43
2018-04-12T06:57:59.212Z,89.76
2018-04-12T07:00:27.479Z,90.21
2018-04-12T07:02:55.775Z,89.85
2018-04-12T07:05:24.040Z,88.96
2018-04-12T07:07:52.306Z,87.95
2018-04-12T07:10:20.600Z,88.31
2018-04-12T07:12:48.868Z,87.90
2018-04-12T07:15:17.331Z,87.67
2018-04-12T07:17:45.605Z,87.93
2018-04-12T07:20:13.898Z,88.25
2018-04-12T07:22:42.183Z,88.05
2018-04-12T07:25:10.541Z,87.78
2018-04-12T07:27:38.896Z,88.14
2018-04-12T07:30:07.276Z,89.16
2018-04-12T07:32:35.618Z,89.81
2018-04-12T07:35:04.014Z,89.10
2018-04-12T07:37:33.113Z,89.41
2018-04-12T07:40:01.607Z,88.65
2018-04-12T07:42:29.957Z,86.43
2018-04-12T07:44:58.318Z,85.97
2018-04-12T07:47:27.443Z,85.01
2018-04-12T07:49:55.836Z,83.63
2018-04-12T07:52:24.217Z,83.10
2018-04-12T07:54:52.571Z,81.52
2018-04-12T07:57:20.966Z,80.21
2018-04-12T07:59:49.328Z,80.20
2018-04-12T08:02:17.686Z,81.86
2018-04-12T08:04:46.827Z,81.76
2018-04-12T08:07:15.157Z,83.16
2018-04-12T08:09:44.290Z,83.09
2018-04-12T08:12:12.631Z,83.72
2018-04-12T08:14:41.749Z,82.61
2018-04-12T08:17:10.065Z,81.32
2018-04-12T08:19:38.390Z,80.95
2018-04-12T08:22:07.500Z,79.11
2018-04-12T08:24:35.852Z,79.15
2018-04-12T08:27:04.218Z,78.89
2018-04-12T08:29:32.534Z,77.92
2018-04-12T08:32:00.901Z,77.50
2018-04-12T08:34:30.035Z,77.91
2018-04-12T08:36:58.384Z,77.54
2018-04-12T08:39:26.778Z,77.27
2018-04-12T08:41:55.158Z,76.84
2018-04-12T08:44:23.511Z,76.42
2018-04-12T08:46:52.651Z,75.43
2018-04-12T08:49:21.002Z,76.36
2018-04-12T08:51:49.383Z,75.79
2018-04-12T08:54:17.716Z,75.69
2018-04-12T08:56:46.859Z,73.82
2018-04-12T08:59:15.198Z,74.65
2018-04-12T09:01:43.581Z,74.04
2018-04-12T09:04:11.942Z,73.87
2018-04-12T09:06:40.282Z,73.37
2018-04-12T09:09:08.663Z,72.86
2018-04-12T09:11:37.049Z,72.38
2018-04-12T09:14:05.389Z,72.02
2018-04-12T09:16:34.505Z,69.96
2018-04-12T09:19:02.839Z,68.46
2018-04-12T09:21:31.185Z,68.02
2018-04-12T09:23:59.526Z,68.71
2018-04-12T09:26:27.905Z,68.24
2018-04-12T09:28:56.275Z,66.07
2018-04-12T09:31:25.422Z,66.42
2018-04-12T09:33:53.715Z,65.45
2018-04-12T09:36:21.991Z,65.63
2018-04-12T09:38:50.276Z,65.25
2018-04-12T09:41:18.593Z,63.34
2018-04-12T09:43:46.839Z,63.73
2018-04-12T09:46:15.120Z,63.60
2018-04-12T09:48:43.406Z,62.37
2018-04-12T09:51:12.451Z,63.52
2018-04-12T09:53:40.731Z,63.67
2018-04-12T09:56:10.234Z,63.88
2018-04-12T09:58:38.518Z,63.20
2018-04-12T10:01:12.381Z,62.09
2018-04-12T10:03:44.278Z,59.76
2018-04-12T10:06:27.439Z,61.80
2018-04-12T10:09:01.365Z,61.06
2018-04-12T10:11:30.417Z,60.22
2018-04-12T10:13:58.699Z,61.09
2018-04-12T10:16:26.968Z,60.78
2018-04-12T10:18:55.304Z,60.22
2018-04-12T10:21:23.567Z,59.97
2018-04-12T10:23:52.616Z,58.55
2018-04-12T10:26:20.899Z,58.98
2018-04-12T10:28:49.241Z,58.90
2018-04-12T10:31:17.478Z,57.93
2018-04-12T10:33:46.511Z,58.82
2018-04-12T10:36:14.805Z,58.63
2018-04-12T10:38:43.109Z,57.71
2018-04-12T10:41:11.379Z,58.71
2018-04-12T10:43:39.694Z,57.85
2018-04-12T10:46:08.323Z,56.59
2018-04-12T10:48:36.615Z,57.35
2018-04-12T10:51:04.901Z,56.83
2018-04-12T10:53:33.465Z,54.54
2018-04-12T10:56:01.752Z,53.08
2018-04-12T10:58:30.789Z,53.95
2018-04-12T11:00:59.848Z,52.51
2018-04-12T11:03:28.204Z,53.15
2018-04-12T11:05:57.200Z,53.27
2018-04-12T11:08:25.479Z,54.30
2018-04-12T11:10:53.772Z,54.55
2018-04-12T11:13:22.047Z,52.57
2018-04-12T11:15:50.337Z,51.79
2018-04-12T11:18:18.677Z,51.98
2018-04-12T11:20:47.667Z,51.94
2018-04-12T11:23:15.959Z,51.42
2018-04-12T11:25:44.261Z,52.17
2018-04-12T11:28:12.538Z,51.90
2018-04-12T11:30:41.584Z,52.50
2018-04-12T11:33:09.864Z,52.43
2018-04-12T11:35:38.151Z,51.91
2018-04-12T11:38:06.444Z,52.69
2018-04-12T11:40:34.749Z,52.46
2018-04-12T11:43:03.012Z,51.96
2018-04-12T11:45:31.301Z,52.45
2018-04-12T11:47:59.655Z,52.59
2018-04-12T11:50:27.923Z,52.04
2018-04-12T11:52:56.216Z,51.67
2018-04-12T11:55:24.546Z,51.36
2018-04-12T11:57:52.922Z,50.71
2018-04-12T12:00:21.273Z,49.87
2018-04-12T12:02:50.378Z,50.47
2018-04-12T12:05:18.682Z,50.27
2018-04-12T12:07:46.995Z,47.76
2018-04-12T12:10:15.272Z,45.93
2018-04-12T12:12:43.564Z,48.54
2018-04-12T12:15:12.612Z,46.28
2018-04-12T12:17:40.914Z,48.27
2018-04-12T12:23:06.236Z,48.65
2018-04-12T12:25:34.516Z,49.11
2018-04-12T12:28:02.799Z,47.41
2018-04-12T12:30:31.084Z,47.90
2018-04-12T12:32:59.371Z,47.81
2018-04-12T12:35:28.403Z,48.99
2018-04-12T12:37:56.728Z,47.99
2018-04-12T12:40:25.000Z,47.17
2018-04-12T12:42:53.275Z,48.07
2018-04-12T12:45:22.376Z,45.60
2018-04-12T12:47:50.660Z,45.36
2018-04-12T12:50:19.694Z,45.32
2018-04-12T12:52:47.998Z,45.43
2018-04-12T12:55:16.267Z,45.04
2018-04-12T12:57:44.556Z,44.30
2018-04-12T13:00:12.848Z,43.63
2018-04-12T13:02:41.580Z,43.61
2018-04-12T13:05:09.856Z,44.51
2018-04-12T13:07:38.152Z,44.24
2018-04-12T13:10:06.456Z,43.86
2018-04-12T13:12:34.712Z,43.75
2018-04-12T13:15:02.995Z,42.52
2018-04-12T13:17:31.260Z,42.55
2018-04-12T13:19:59.538Z,42.49
2018-04-12T13:22:27.817Z,42.23
2018-04-12T13:24:56.089Z,43.50
2018-04-12T13:27:24.372Z,44.13
2018-04-12T13:29:52.657Z,44.55
2018-04-12T13:32:20.929Z,43.51
2018-04-12T13:34:49.202Z,44.77
2018-04-12T13:37:17.561Z,43.63
2018-04-12T13:39:45.829Z,42.43
2018-04-12T13:42:14.128Z,43.06
2018-04-12T13:44:42.421Z,42.15
2018-04-12T13:47:10.688Z,41.86
2018-04-12T13:49:38.957Z,41.81
2018-04-12T13:52:07.266Z,43.22
2018-04-12T13:54:35.537Z,43.01
2018-04-12T13:57:03.832Z,44.49
2018-04-12T13:59:32.896Z,44.24
2018-04-12T14:02:01.232Z,45.19
2018-04-12T14:04:29.503Z,46.00
2018-04-12T14:06:57.795Z,46.61
2018-04-12T14:09:26.108Z,47.59
2018-04-12T14:11:54.413Z,47.50
2018-04-12T14:14:23.444Z,49.47
2018-04-12T14:16:51.739Z,48.81
2018-04-12T14:19:20.786Z,48.52
2018-04-12T14:21:49.831Z,48.81
2018-04-12T14:24:18.168Z,49.15
2018-04-12T14:26:46.408Z,49.10
2018-04-12T14:29:14.719Z,49.99
2018-04-12T14:31:43.004Z,49.66
2018-04-12T14:34:11.294Z,49.49
2018-04-12T14:36:39.586Z,50.53
2018-04-12T14:39:07.942Z,50.31
2018-04-12T14:41:36.235Z,49.72
2018-04-12T14:44:05.105Z,50.77
2018-04-12T14:46:33.372Z,50.05
2018-04-12T14:49:01.739Z,50.08
2018-04-12T14:51:30.776Z,50.37
2018-04-12T14:53:59.063Z,50.67
2018-04-12T14:56:27.375Z,50.44
2018-04-12T14:58:56.428Z,51.04
2018-04-12T15:01:25.848Z,50.40
2018-04-12T15:03:54.122Z,49.85
2018-04-12T15:06:22.696Z,49.34
2018-04-12T15:08:50.993Z,48.35
2018-04-12T15:11:19.283Z,48.36
2018-04-12T15:13:48.320Z,48.49
2018-04-12T15:16:16.594Z,48.08
2018-04-12T15:18:44.892Z,49.08
2018-04-12T15:21:13.169Z,47.97
2018-04-12T15:23:41.459Z,47.49
2018-04-12T15:26:09.807Z,47.04
2018-04-12T15:28:38.087Z,47.74
2018-04-12T15:31:06.356Z,47.08
2018-04-12T15:33:34.653Z,47.05
2018-04-12T15:36:02.942Z,46.63
2018-04-12T15:38:31.213Z,45.22
2018-04-12T15:40:59.512Z,45.00
2018-04-12T15:43:27.782Z,44.45
2018-04-12T15:45:56.063Z,44.16
2018-04-12T15:48:24.360Z,42.93
2018-04-12T15:50:53.979Z,42.32
2018-04-12T15:53:22.296Z,42.05
2018-04-12T15:55:50.564Z,40.84
2018-04-12T15:58:18.850Z,41.12
2018-04-12T16:00:47.133Z,41.81
2018-04-12T16:03:15.419Z,43.30
2018-04-12T16:05:43.693Z,44.51
2018-04-12T16:08:11.961Z,44.16
2018-04-12T16:10:40.261Z,45.36
2018-04-12T16:13:08.527Z,46.71
2018-04-12T16:15:36.815Z,47.35
2018-04-12T16:18:05.112Z,48.00
2018-04-12T16:20:33.419Z,47.14
2018-04-12T16:23:01.693Z,46.44
2018-04-12T16:25:29.984Z,46.29
2018-04-12T16:27:58.253Z,45.12
2018-04-12T16:30:26.523Z,44.78
2018-04-12T16:32:54.816Z,44.98
2018-04-12T16:35:23.146Z,44.76
2018-04-12T16:37:51.493Z,45.20
2018-04-12T16:40:19.831Z,46.18
2018-04-12T16:42:48.190Z,47.70
2018-04-12T16:45:16.591Z,47.39
2018-04-12T16:47:44.941Z,48.29
2018-04-12T16:50:13.321Z,47.83
2018-04-12T16:52:41.682Z,47.13
2018-04-12T16:55:09.998Z,47.25
2018-04-12T16:57:38.274Z,46.30
2018-04-12T17:00:06.566Z,45.12
2018-04-12T17:02:34.840Z,45.69
2018-04-12T17:05:03.124Z,46.43
2018-04-12T17:07:31.423Z,46.40
2018-04-12T17:09:59.692Z,46.25
2018-04-12T17:12:28.005Z,46.37
2018-04-12T17:14:57.105Z,47.04
2018-04-12T17:17:25.412Z,47.08
2018-04-12T17:19:53.661Z,47.84
2018-04-12T17:22:21.959Z,47.25
2018-04-12T17:24:50.232Z,48.28
2018-04-12T17:27:18.504Z,48.32
2018-04-12T17:29:46.814Z,49.61
2018-04-12T17:32:15.135Z,50.36
2018-04-12T17:34:44.186Z,51.39
2018-04-12T17:37:12.480Z,51.21
2018-04-12T17:39:42.251Z,51.27
2018-04-12T17:42:10.538Z,51.96
2018-04-12T17:44:38.908Z,52.57
2018-04-12T17:47:07.225Z,52.37
2018-04-12T17:49:35.529Z,53.13
2018-04-12T17:52:04.619Z,52.86
2018-04-12T17:54:33.677Z,52.91
2018-04-12T17:57:02.007Z,53.00
2018-04-12T17:59:30.322Z,53.35
2018-04-12T18:01:58.618Z,53.13
2018-04-12T18:04:26.915Z,53.66
2018-04-12T18:06:55.998Z,54.29
2018-04-12T18:09:24.336Z,56.64
2018-04-12T18:11:52.632Z,57.01
2018-04-12T18:14:20.950Z,57.98
2018-04-12T18:16:50.123Z,58.30
2018-04-12T18:19:19.224Z,59.20
2018-04-12T18:21:48.322Z,61.36
2018-04-12T18:24:16.816Z,62.14
2018-04-12T18:26:45.732Z,62.10
2018-04-12T18:29:14.524Z,62.38
2018-04-12T18:31:43.201Z,63.25
2018-04-12T18:34:12.998Z,64.04
2018-04-12T18:36:42.559Z,63.91
2018-04-12T18:39:11.953Z,64.42
2018-04-12T18:41:42.543Z,64.02
2018-04-12T18:44:11.787Z,64.33
2018-04-12T18:46:41.147Z,64.36
2018-04-12T18:49:11.282Z,64.49
2018-04-12T18:51:41.470Z,66.20
2018-04-12T18:54:10.875Z,66.98
2018-04-12T18:56:40.459Z,66.86
2018-04-12T18:59:09.921Z,65.97
2018-04-12T19:01:40.751Z,66.02
2018-04-12T19:04:10.019Z,65.70
2018-04-12T19:06:39.466Z,67.14
2018-04-12T19:09:08.818Z,66.68
2018-04-12T19:11:38.225Z,66.12
2018-04-12T19:14:09.099Z,67.43
2018-04-12T19:16:39.282Z,67.22
2018-04-12T19:19:08.608Z,68.21
2018-04-12T19:21:37.963Z,68.45
2018-04-12T19:24:07.548Z,68.27
2018-04-12T19:26:37.070Z,68.24
2018-04-12T19:29:07.533Z,67.88
2018-04-12T19:31:37.817Z,68.58
2018-04-12T19:34:08.183Z,68.71
2018-04-12T19:36:38.445Z,68.26
2018-04-12T19:39:08.143Z,67.96
2018-04-12T19:41:37.658Z,67.90
2018-04-12T19:44:07.258Z,69.07
2018-04-12T19:46:37.742Z,69.38
2018-04-12T19:49:07.343Z,70.25
2018-04-12T19:51:36.858Z,70.06
2018-04-12T19:54:06.572Z,70.13
2018-04-12T19:56:36.951Z,69.92
2018-04-12T19:59:06.495Z,69.27
2018-04-12T20:01:36.756Z,69.87
2018-04-12T20:04:06.358Z,70.05
2018-04-12T20:06:37.702Z,70.07
2018-04-12T20:09:08.021Z,70.36
2018-04-12T20:11:37.542Z,70.03
2018-04-12T20:14:06.846Z,69.79
2018-04-12T20:16:37.013Z,70.58
2018-04-12T20:19:07.021Z,71.59
2018-04-12T20:21:36.453Z,71.82
2018-04-12T20:24:05.869Z,72.23
2018-04-12T20:26:36.047Z,71.07
2018-04-12T20:29:05.310Z,71.24
2018-04-12T20:31:35.491Z,72.52
2018-04-12T20:34:04.814Z,72.40
2018-04-12T20:36:35.172Z,73.00
2018-04-12T20:39:04.675Z,73.03
2018-04-12T20:41:34.060Z,73.26
2018-04-12T20:44:03.439Z,73.39
2018-04-12T20:46:32.663Z,73.32
2018-04-12T20:49:02.873Z,73.24
2018-04-12T20:51:32.755Z,72.73
2018-04-12T20:54:02.112Z,72.50
2018-04-12T20:56:30.848Z,72.35
2018-04-12T20:58:59.329Z,72.33
2018-04-12T21:01:28.016Z,73.85
2018-04-12T21:03:56.345Z,74.36
2018-04-12T21:06:24.683Z,75.20
2018-04-12T21:08:53.004Z,72.19
2018-04-12T21:11:21.283Z,70.94
2018-04-12T21:13:49.588Z,69.54
2018-04-12T21:16:17.909Z,70.03
2018-04-12T21:18:46.195Z,69.72
2018-04-12T21:21:14.491Z,69.38
2018-04-12T21:23:42.767Z,69.25
2018-04-12T21:26:11.064Z,69.16
2018-04-12T21:28:39.365Z,68.48
2018-04-12T21:31:08.403Z,68.49
2018-04-12T21:33:36.694Z,68.62
2018-04-12T21:36:04.964Z,70.04
2018-04-12T21:38:33.260Z,70.13
2018-04-12T21:41:02.310Z,69.54
2018-04-12T21:43:30.595Z,69.00
2018-04-12T21:45:58.892Z,68.63
2018-04-12T21:48:27.161Z,68.30
2018-04-12T21:50:55.420Z,70.34
2018-04-12T21:53:23.716Z,71.00
2018-04-12T21:55:51.992Z,71.97
2018-04-12T21:58:20.283Z,72.93
2018-04-12T22:00:49.319Z,72.79
2018-04-12T22:03:18.383Z,73.19
2018-04-12T22:05:46.671Z,72.56
2018-04-12T22:08:14.982Z,73.37
2018-04-12T22:10:43.288Z,72.68
2018-04-12T22:13:11.571Z,72.73
2018-04-12T22:15:39.848Z,72.87
2018-04-12T22:18:08.138Z,73.51
2018-04-12T22:20:36.447Z,75.45
2018-04-12T22:23:04.733Z,74.74
2018-04-12T22:25:33.005Z,75.08
2018-04-12T22:28:02.057Z,74.80
2018-04-12T22:30:30.323Z,74.26
2018-04-12T22:32:58.608Z,74.58
2018-04-12T22:35:26.911Z,74.27
2018-04-12T22:37:55.972Z,74.56
2018-04-12T22:40:24.263Z,74.66
2018-04-12T22:42:52.531Z,75.53
2018-04-12T22:45:20.795Z,74.84
2018-04-12T22:47:49.091Z,74.09
2018-04-12T22:50:17.370Z,73.79
2018-04-12T22:52:45.661Z,73.52
2018-04-12T22:55:13.944Z,73.67
2018-04-12T22:57:43.012Z,73.37
2018-04-12T23:00:11.282Z,73.03
2018-04-12T23:02:39.582Z,73.03
2018-04-12T23:05:07.860Z,73.48
2018-04-12T23:07:36.159Z,73.64
2018-04-12T23:10:05.196Z,74.27
2018-04-12T23:12:34.256Z,74.20
2018-04-12T23:15:02.530Z,75.00
2018-04-12T23:17:30.803Z,76.08
2018-04-12T23:19:59.150Z,76.28
2018-04-12T23:22:27.436Z,76.06
2018-04-12T23:24:56.473Z,77.06
2018-04-12T23:27:24.755Z,77.29
2018-04-12T23:29:53.028Z,77.40
2018-04-12T23:32:21.297Z,78.17
2018-04-12T23:34:49.583Z,77.51
2018-04-12T23:37:17.848Z,78.27
2018-04-12T23:39:46.121Z,79.98
2018-04-12T23:42:14.432Z,79.89
2018-04-12T23:44:42.713Z,79.07
2018-04-12T23:47:10.996Z,79.43
2018-04-12T23:49:39.280Z,79.69
2018-04-12T23:52:07.543Z,79.69
2018-04-12T23:54:35.812Z,78.99
2018-04-12T23:57:04.095Z,78.60
2018-04-12T23:59:32.382Z,78.80
